createdAt,value
2022-11-14T00:00:43.094Z,5.72
2022-11-14T00:03:28.344Z,5.69
2022-11-14T00:06:13.860Z,5.80
2022-11-14T00:08:59.090Z,5.60
2022-11-14T00:11:44.086Z,5.63
2022-11-14T00:14:29.177Z,5.72
2022-11-14T00:17:14.780Z,5.68
2022-11-14T00:19:59.497Z,5.69
2022-11-14T00:22:44.930Z,5.61
2022-11-14T00:25:30.234Z,5.62
2022-11-14T00:28:15.700Z,5.62
2022-11-14T00:31:00.454Z,5.57
2022-11-14T00:33:45.961Z,5.56
2022-11-14T00:36:31.236Z,5.65
2022-11-14T00:39:16.670Z,5.59
2022-11-14T00:42:03.271Z,5.61
2022-11-14T00:44:49.141Z,5.56
2022-11-14T00:47:34.147Z,5.63
2022-11-14T00:50:19.432Z,5.64
2022-11-14T00:53:04.706Z,5.63
2022-11-14T00:55:49.913Z,5.67
2022-11-14T00:58:34.849Z,5.65
2022-11-14T01:01:20.053Z,5.64
2022-11-14T01:04:05.414Z,5.62
2022-11-14T01:06:50.598Z,5.63
2022-11-14T01:09:35.867Z,5.57
2022-11-14T01:12:20.934Z,5.62
2022-11-14T01:15:06.846Z,5.70
2022-11-14T01:17:51.970Z,5.69
2022-11-14T01:20:42.356Z,5.68
2022-11-14T01:23:27.696Z,5.74
2022-11-14T01:26:14.384Z,5.74
2022-11-14T01:28:59.484Z,5.70
2022-11-14T01:31:44.896Z,5.60
2022-11-14T01:34:30.149Z,5.74
2022-11-14T01:37:15.431Z,5.57
2022-11-14T01:40:00.579Z,5.55
2022-11-14T01:43:11.487Z,5.50
2022-11-14T01:46:01.941Z,5.57
2022-11-14T01:49:03.412Z,5.50
2022-11-14T01:51:55.819Z,5.59
2022-11-14T01:54:48.315Z,5.42
2022-11-14T01:57:38.435Z,5.46
2022-11-14T02:00:23.381Z,5.48
2022-11-14T02:03:08.216Z,5.41
2022-11-14T02:05:54.361Z,5.32
2022-11-14T02:08:40.677Z,5.22
2022-11-14T02:11:28.701Z,5.25
2022-11-14T02:14:14.186Z,5.26
2022-11-14T02:17:22.575Z,5.23
2022-11-14T02:20:10.532Z,5.14
2022-11-14T02:22:55.797Z,5.17
2022-11-14T02:25:41.234Z,5.26
2022-11-14T02:28:27.506Z,5.14
2022-11-14T02:31:14.156Z,5.23
2022-11-14T02:33:59.084Z,5.12
2022-11-14T02:36:44.193Z,5.13
2022-11-14T02:39:29.393Z,5.18
2022-11-14T02:42:14.624Z,5.05
2022-11-14T02:45:00.128Z,5.18
2022-11-14T02:47:46.856Z,5.17
2022-11-14T02:50:32.031Z,5.07
2022-11-14T02:53:17.270Z,5.20
2022-11-14T02:56:02.379Z,5.20
2022-11-14T02:58:47.669Z,5.05
2022-11-14T03:01:33.047Z,5.19
2022-11-14T03:04:18.047Z,5.13
2022-11-14T03:07:03.330Z,5.15
2022-11-14T03:09:49.398Z,5.13
2022-11-14T03:12:34.188Z,5.11
2022-11-14T03:15:19.481Z,5.06
2022-11-14T03:18:04.756Z,5.00
2022-11-14T03:20:49.700Z,5.04
2022-11-14T03:23:34.608Z,5.05
2022-11-14T03:26:19.605Z,4.95
2022-11-14T03:29:04.776Z,4.93
2022-11-14T03:31:50.079Z,4.97
2022-11-14T03:34:35.245Z,5.13
2022-11-14T03:37:20.052Z,5.07
2022-11-14T03:40:06.101Z,5.08
2022-11-14T03:42:51.129Z,4.94
2022-11-14T03:45:37.733Z,4.97
2022-11-14T03:48:22.438Z,4.99
2022-11-14T03:51:07.899Z,4.96
2022-11-14T03:53:53.564Z,5.01
2022-11-14T03:56:38.551Z,5.10
2022-11-14T03:59:23.623Z,5.01
2022-11-14T04:02:09.078Z,5.01
2022-11-14T04:04:54.097Z,4.90
2022-11-14T04:07:39.574Z,4.83
2022-11-14T04:10:24.676Z,4.91
2022-11-14T04:13:09.714Z,4.95
2022-11-14T04:15:59.043Z,4.84
2022-11-14T04:18:44.313Z,4.75
2022-11-14T04:21:29.225Z,4.75
2022-11-14T04:24:14.411Z,4.76
2022-11-14T04:26:59.659Z,4.85
2022-11-14T04:29:44.620Z,4.98
2022-11-14T04:32:29.649Z,4.94
2022-11-14T04:35:14.528Z,4.97
2022-11-14T04:37:59.563Z,4.87
2022-11-14T04:40:53.896Z,5.01
2022-11-14T04:43:38.924Z,4.97
2022-11-14T04:46:24.188Z,4.86
2022-11-14T04:49:09.358Z,4.75
2022-11-14T04:51:54.403Z,4.80
2022-11-14T04:54:39.748Z,4.96
2022-11-14T04:57:25.088Z,4.96
2022-11-14T05:00:10.793Z,4.94
2022-11-14T05:02:58.684Z,4.83
2022-11-14T05:05:44.178Z,4.78
2022-11-14T05:08:29.799Z,4.76
2022-11-14T05:11:16.404Z,4.85
2022-11-14T05:14:02.831Z,4.87
2022-11-14T05:16:47.848Z,4.79
2022-11-14T05:19:33.155Z,4.73
2022-11-14T05:22:18.291Z,4.75
2022-11-14T05:25:03.642Z,4.86
2022-11-14T05:27:48.991Z,4.74
2022-11-14T05:30:34.165Z,4.66
2022-11-14T05:33:19.025Z,4.77
2022-11-14T05:36:04.759Z,4.71
2022-11-14T05:38:49.901Z,4.62
2022-11-14T05:41:34.765Z,4.68
2022-11-14T05:44:20.026Z,4.66
2022-11-14T05:47:05.226Z,4.62
2022-11-14T05:49:50.098Z,4.59
2022-11-14T05:52:35.164Z,4.61
2022-11-14T05:55:24.573Z,4.61
2022-11-14T05:58:10.226Z,4.57
2022-11-14T06:01:06.837Z,4.66
2022-11-14T06:03:52.104Z,4.62
2022-11-14T06:06:37.134Z,4.54
2022-11-14T06:09:22.579Z,4.62
2022-11-14T06:12:08.247Z,4.57
2022-11-14T06:14:53.506Z,4.70
2022-11-14T06:17:38.704Z,4.66
2022-11-14T06:20:23.831Z,4.60
2022-11-14T06:23:09.162Z,4.64
2022-11-14T06:26:02.230Z,4.70
2022-11-14T06:28:49.569Z,4.75
2022-11-14T06:31:34.542Z,4.59
2022-11-14T06:34:19.791Z,4.55
2022-11-14T06:37:05.766Z,4.66
2022-11-14T06:39:51.180Z,4.59
2022-11-14T06:42:36.452Z,4.61
2022-11-14T06:45:21.710Z,4.71
2022-11-14T06:48:06.968Z,4.59
2022-11-14T06:50:56.244Z,4.66
2022-11-14T06:53:41.975Z,4.60
2022-11-14T06:56:27.317Z,4.60
2022-11-14T06:59:12.620Z,4.59
2022-11-14T07:01:57.596Z,4.61
2022-11-14T07:04:42.996Z,4.61
2022-11-14T07:07:28.963Z,4.49
2022-11-14T07:10:14.500Z,4.48
2022-11-14T07:12:59.397Z,4.50
2022-11-14T07:15:54.246Z,4.50
2022-11-14T07:18:39.501Z,4.62
2022-11-14T07:21:25.492Z,4.56
2022-11-14T07:24:10.414Z,4.68
2022-11-14T07:26:55.551Z,4.64
2022-11-14T07:29:40.360Z,4.59
2022-11-14T07:32:25.512Z,4.60
2022-11-14T07:35:10.950Z,4.48
2022-11-14T07:38:02.291Z,4.59
2022-11-14T07:40:59.669Z,4.44
2022-11-14T07:43:47.555Z,4.47
2022-11-14T07:46:32.815Z,4.41
2022-11-14T07:49:17.833Z,4.53
2022-11-14T07:52:02.959Z,4.53
2022-11-14T07:54:48.432Z,4.58
2022-11-14T07:57:37.042Z,4.61
2022-11-14T08:00:25.791Z,4.73
2022-11-14T08:03:11.076Z,4.76
2022-11-14T08:06:09.543Z,4.69
2022-11-14T08:08:54.701Z,4.62
2022-11-14T08:11:48.652Z,4.58
2022-11-14T08:14:34.859Z,4.66
2022-11-14T08:17:21.380Z,4.74
2022-11-14T08:20:08.145Z,4.69
2022-11-14T08:22:54.450Z,4.65
2022-11-14T08:25:39.839Z,4.78
2022-11-14T08:28:24.677Z,4.80
2022-11-14T08:31:10.802Z,4.92
2022-11-14T08:33:55.705Z,4.89
2022-11-14T08:36:40.937Z,4.96
2022-11-14T08:39:26.031Z,4.87
2022-11-14T08:42:11.227Z,5.01
2022-11-14T08:44:56.331Z,5.01
2022-11-14T08:47:41.307Z,4.97
2022-11-14T08:50:26.364Z,5.00
2022-11-14T08:53:11.422Z,5.06
2022-11-14T08:55:56.790Z,5.18
2022-11-14T08:58:42.000Z,5.23
2022-11-14T09:01:26.962Z,5.19
2022-11-14T09:04:12.169Z,5.11
2022-11-14T09:06:58.867Z,5.05
2022-11-14T09:09:44.597Z,5.08
2022-11-14T09:12:29.707Z,5.11
2022-11-14T09:15:15.198Z,5.18
2022-11-14T09:18:00.138Z,5.06
2022-11-14T09:20:45.089Z,5.09
2022-11-14T09:23:30.670Z,5.08
2022-11-14T09:26:16.302Z,5.01
2022-11-14T09:29:02.113Z,5.10
2022-11-14T09:31:47.252Z,5.16
2022-11-14T09:34:32.369Z,5.09
2022-11-14T09:37:17.507Z,5.23
2022-11-14T09:40:03.704Z,5.17
2022-11-14T09:43:25.329Z,5.14
2022-11-14T09:46:37.780Z,5.31
2022-11-14T09:49:35.230Z,5.29
2022-11-14T09:52:33.645Z,5.39
2022-11-14T09:55:21.254Z,5.49
2022-11-14T09:58:15.672Z,5.43
2022-11-14T10:01:09.750Z,5.43
2022-11-14T10:04:28.425Z,5.59
2022-11-14T10:07:45.403Z,5.70
2022-11-14T10:10:45.809Z,5.70
2022-11-14T10:13:59.710Z,5.66
2022-11-14T10:16:58.166Z,5.80
2022-11-14T10:20:17.684Z,5.83
2022-11-14T10:23:18.216Z,5.87
2022-11-14T10:26:23.374Z,5.99
2022-11-14T10:29:27.133Z,6.04
2022-11-14T10:32:36.915Z,6.20
2022-11-14T10:35:46.861Z,6.19
2022-11-14T10:38:46.417Z,6.15
2022-11-14T10:41:55.670Z,6.11
2022-11-14T10:44:50.987Z,6.12
2022-11-14T10:47:41.060Z,6.11
2022-11-14T10:50:48.149Z,6.14
2022-11-14T10:53:35.803Z,6.15
2022-11-14T10:56:21.462Z,6.14
2022-11-14T10:59:08.854Z,6.08
2022-11-14T11:01:56.336Z,6.11
2022-11-14T11:04:43.315Z,6.09
2022-11-14T11:07:54.734Z,6.21
2022-11-14T11:11:03.935Z,6.28
2022-11-14T11:13:55.787Z,6.23
2022-11-14T11:16:40.961Z,6.26
2022-11-14T11:19:27.228Z,6.27
2022-11-14T11:22:36.217Z,6.22
2022-11-14T11:25:30.382Z,6.28
2022-11-14T11:28:20.756Z,6.33
2022-11-14T11:31:11.153Z,6.51
2022-11-14T11:34:02.663Z,6.64
2022-11-14T11:36:55.822Z,6.91
2022-11-14T11:39:48.056Z,6.96
2022-11-14T11:43:37.248Z,7.02
2022-11-14T11:46:42.761Z,7.04
2022-11-14T11:49:30.475Z,6.87
2022-11-14T11:52:34.161Z,6.78
2022-11-14T11:55:25.477Z,6.83
2022-11-14T11:58:41.115Z,6.85
2022-11-14T12:01:26.452Z,6.97
2022-11-14T12:04:11.393Z,7.08
2022-11-14T12:07:12.507Z,7.07
2022-11-14T12:10:10.859Z,7.12
2022-11-14T12:13:33.619Z,7.16
2022-11-14T12:16:58.240Z,7.24
2022-11-14T12:20:29.910Z,7.30
2022-11-14T12:23:58.404Z,7.27
2022-11-14T12:26:52.082Z,7.29
2022-11-14T12:29:51.933Z,7.35
2022-11-14T12:32:42.367Z,7.40
2022-11-14T12:35:35.838Z,7.60
2022-11-14T12:38:22.617Z,7.64
2022-11-14T12:41:08.685Z,7.55
2022-11-14T12:43:55.985Z,7.44
2022-11-14T12:47:13.609Z,7.46
2022-11-14T12:50:00.657Z,7.59
2022-11-14T12:52:48.907Z,7.65
2022-11-14T12:55:43.873Z,7.70
2022-11-14T12:58:36.210Z,7.72
2022-11-14T13:01:30.480Z,7.80
2022-11-14T13:04:32.549Z,7.90
2022-11-14T13:07:34.500Z,7.91
2022-11-14T13:10:31.628Z,8.05
2022-11-14T13:13:36.485Z,8.12
2022-11-14T13:16:48.423Z,8.01
2022-11-14T13:19:52.011Z,8.07
2022-11-14T13:22:45.457Z,7.95
2022-11-14T13:25:30.997Z,8.06
2022-11-14T13:28:37.891Z,8.12
2022-11-14T13:31:45.879Z,8.11
2022-11-14T13:34:38.504Z,8.21
2022-11-14T13:38:00.741Z,8.19
2022-11-14T13:40:51.705Z,8.17
2022-11-14T13:44:01.415Z,8.04
2022-11-14T13:47:08.261Z,8.25
2022-11-14T13:49:59.279Z,8.27
2022-11-14T13:52:48.862Z,8.25
2022-11-14T13:55:58.841Z,8.21
2022-11-14T13:58:56.305Z,8.14
2022-11-14T14:01:54.593Z,8.15
2022-11-14T14:05:00.990Z,8.16
2022-11-14T14:08:00.809Z,8.02
2022-11-14T14:11:00.718Z,7.97
2022-11-14T14:13:57.667Z,7.93
2022-11-14T14:16:58.710Z,7.83
2022-11-14T14:20:00.084Z,7.88
2022-11-14T14:23:16.862Z,7.94
2022-11-14T14:26:34.639Z,7.89
2022-11-14T14:29:45.956Z,7.88
2022-11-14T14:32:30.950Z,7.75
2022-11-14T14:35:39.077Z,7.83
2022-11-14T14:38:28.291Z,7.63
2022-11-14T14:41:18.043Z,7.59
2022-11-14T14:44:03.029Z,7.51
2022-11-14T14:46:48.239Z,7.63
2022-11-14T14:49:37.677Z,7.51
2022-11-14T14:52:30.728Z,7.55
2022-11-14T14:55:30.420Z,7.58
2022-11-14T14:58:21.992Z,7.41
2022-11-14T15:01:15.886Z,7.49
2022-11-14T15:04:06.693Z,7.29
2022-11-14T15:06:53.470Z,7.24
2022-11-14T15:09:38.776Z,7.29
2022-11-14T15:12:26.065Z,7.44
2022-11-14T15:15:16.682Z,7.30
2022-11-14T15:18:07.398Z,7.21
2022-11-14T15:21:14.066Z,7.13
2022-11-14T15:24:18.601Z,7.06
2022-11-14T15:27:10.136Z,7.10
2022-11-14T15:30:00.689Z,7.10
2022-11-14T15:32:57.321Z,7.09
2022-11-14T15:35:42.738Z,6.89
2022-11-14T15:38:44.669Z,6.97
2022-11-14T15:41:33.855Z,6.84
2022-11-14T15:44:34.619Z,6.75
2022-11-14T15:47:29.013Z,6.70
2022-11-14T15:50:13.770Z,6.67
2022-11-14T15:53:01.969Z,6.62
2022-11-14T15:55:47.325Z,6.56
2022-11-14T15:58:32.979Z,6.71
2022-11-14T16:01:23.759Z,6.56
2022-11-14T16:04:14.348Z,6.68
2022-11-14T16:06:59.242Z,6.64
2022-11-14T16:09:45.148Z,6.64
2022-11-14T16:12:30.261Z,6.45
2022-11-14T16:15:16.561Z,6.48
2022-11-14T16:18:04.594Z,6.61
2022-11-14T16:20:51.376Z,6.75
2022-11-14T16:23:36.609Z,6.61
2022-11-14T16:26:21.863Z,6.55
2022-11-14T16:29:08.884Z,6.57
2022-11-14T16:31:55.151Z,6.56
2022-11-14T16:34:40.298Z,6.35
2022-11-14T16:37:25.599Z,6.42
2022-11-14T16:40:21.436Z,6.35
2022-11-14T16:43:06.575Z,6.39
2022-11-14T16:45:51.426Z,6.36
2022-11-14T16:48:36.411Z,6.55
2022-11-14T16:51:47.047Z,6.43
2022-11-14T16:54:26.449Z,6.39
2022-11-14T16:57:12.023Z,6.39
2022-11-14T16:59:58.084Z,6.24
2022-11-14T17:02:44.020Z,6.36
2022-11-14T17:05:28.977Z,6.33
2022-11-14T17:08:15.728Z,6.35
2022-11-14T17:11:00.925Z,6.23
2022-11-14T17:13:46.641Z,6.29
2022-11-14T17:16:31.833Z,6.24
2022-11-14T17:19:16.778Z,6.29
2022-11-14T17:22:01.826Z,6.29
2022-11-14T17:24:47.121Z,6.29
2022-11-14T17:27:32.170Z,6.20
2022-11-14T17:30:18.360Z,6.08
2022-11-14T17:33:03.183Z,6.10
2022-11-14T17:35:48.513Z,6.13
2022-11-14T17:38:35.217Z,6.10
2022-11-14T17:41:20.656Z,6.14
2022-11-14T17:44:05.498Z,6.07
2022-11-14T17:46:50.588Z,6.01
2022-11-14T17:49:35.635Z,6.00
2022-11-14T17:52:21.440Z,5.85
2022-11-14T17:55:07.326Z,5.88
2022-11-14T17:57:52.382Z,5.82
2022-11-14T18:00:37.514Z,5.70
2022-11-14T18:03:22.647Z,5.76
2022-11-14T18:06:09.890Z,5.70
2022-11-14T18:08:54.833Z,5.69
2022-11-14T18:11:39.844Z,5.57
2022-11-14T18:14:25.058Z,5.63
2022-11-14T18:17:13.142Z,5.73
2022-11-14T18:20:01.512Z,5.59
2022-11-14T18:22:46.541Z,5.53
2022-11-14T18:25:31.708Z,5.49
2022-11-14T18:28:17.061Z,5.67
2022-11-14T18:31:04.489Z,5.60
2022-11-14T18:33:50.348Z,5.61
2022-11-14T18:36:35.286Z,5.54
2022-11-14T18:39:20.586Z,5.47
2022-11-14T18:42:05.903Z,5.48
2022-11-14T18:44:51.192Z,5.53
2022-11-14T18:47:36.589Z,5.68
2022-11-14T18:50:21.806Z,5.72
2022-11-14T18:53:07.137Z,5.64
2022-11-14T18:55:53.200Z,5.62
2022-11-14T18:58:41.932Z,5.62
2022-11-14T19:01:30.050Z,5.66
2022-11-14T19:04:17.334Z,5.70
2022-11-14T19:07:02.633Z,5.72
2022-11-14T19:09:48.341Z,5.70
2022-11-14T19:12:33.681Z,5.74
2022-11-14T19:15:18.686Z,5.67
2022-11-14T19:18:03.888Z,5.81
2022-11-14T19:20:57.233Z,5.64
2022-11-14T19:23:42.126Z,5.64
2022-11-14T19:26:28.160Z,5.60
2022-11-14T19:29:13.781Z,5.63
2022-11-14T19:31:59.126Z,5.65
2022-11-14T19:34:45.331Z,5.59
2022-11-14T19:37:30.384Z,5.62
2022-11-14T19:40:15.444Z,5.58
2022-11-14T19:43:03.937Z,5.56
2022-11-14T19:45:48.947Z,5.54
2022-11-14T19:48:35.385Z,5.61
2022-11-14T19:51:22.289Z,5.73
2022-11-14T19:54:09.948Z,5.74
2022-11-14T19:56:55.348Z,5.73
2022-11-14T19:59:40.298Z,5.79
2022-11-14T20:02:25.803Z,5.81
2022-11-14T20:05:11.539Z,5.79
2022-11-14T20:07:56.608Z,5.86
2022-11-14T20:10:47.585Z,5.96
2022-11-14T20:13:35.475Z,5.88
2022-11-14T20:16:23.372Z,6.02
2022-11-14T20:19:08.750Z,5.98
2022-11-14T20:21:53.881Z,6.01
2022-11-14T20:24:39.085Z,5.86
2022-11-14T20:27:24.146Z,5.97
2022-11-14T20:30:09.761Z,6.04
2022-11-14T20:32:54.814Z,5.94
2022-11-14T20:35:40.084Z,5.94
2022-11-14T20:38:25.181Z,5.96
2022-11-14T20:41:12.305Z,6.17
2022-11-14T20:43:57.560Z,6.10
2022-11-14T20:46:42.907Z,6.15
2022-11-14T20:49:28.117Z,6.16
2022-11-14T20:52:16.344Z,6.17
2022-11-14T20:55:05.172Z,6.23
2022-11-14T20:57:54.040Z,6.30
2022-11-14T21:00:39.189Z,6.51
2022-11-14T21:03:24.009Z,6.40
2022-11-14T21:06:11.604Z,6.43
2022-11-14T21:08:56.356Z,6.51
2022-11-14T21:11:41.402Z,6.53
2022-11-14T21:14:26.916Z,6.74
2022-11-14T21:17:11.634Z,6.73
2022-11-14T21:19:56.542Z,6.73
2022-11-14T21:22:41.561Z,6.76
2022-11-14T21:25:26.922Z,6.61
2022-11-14T21:28:11.908Z,6.63
2022-11-14T21:30:58.571Z,6.62
2022-11-14T21:33:44.623Z,6.54
2022-11-14T21:36:44.536Z,6.81
2022-11-14T21:39:31.012Z,6.64
2022-11-14T21:42:18.602Z,6.59
2022-11-14T21:45:05.406Z,6.60
2022-11-14T21:47:50.753Z,6.72
2022-11-14T21:50:35.659Z,6.84
2022-11-14T21:53:20.848Z,6.89
2022-11-14T21:56:19.660Z,6.75
2022-11-14T21:59:16.068Z,6.82
2022-11-14T22:02:20.420Z,6.91
2022-11-14T22:05:06.387Z,6.80
2022-11-14T22:07:51.475Z,6.76
2022-11-14T22:10:36.643Z,6.63
2022-11-14T22:13:21.860Z,6.67
2022-11-14T22:16:08.765Z,6.79
2022-11-14T22:18:58.052Z,6.64
2022-11-14T22:21:46.844Z,6.62
2022-11-14T22:24:31.986Z,6.59
2022-11-14T22:27:17.181Z,6.67
2022-11-14T22:30:02.395Z,6.61
2022-11-14T22:32:47.342Z,6.62
2022-11-14T22:35:35.233Z,6.60
2022-11-14T22:38:20.709Z,6.59
2022-11-14T22:41:09.624Z,6.54
2022-11-14T22:43:55.798Z,6.65
2022-11-14T22:46:40.990Z,6.55
2022-11-14T22:49:25.851Z,6.52
2022-11-14T22:52:11.121Z,6.42
2022-11-14T22:54:56.128Z,6.36
2022-11-14T22:57:41.389Z,6.49
2022-11-14T23:00:26.557Z,6.36
2022-11-14T23:04:02.474Z,6.46
2022-11-14T23:06:52.833Z,6.33
2022-11-14T23:09:37.996Z,6.24
2022-11-14T23:12:23.360Z,6.23
2022-11-14T23:15:09.704Z,6.14
2022-11-14T23:17:55.283Z,6.08
2022-11-14T23:20:46.889Z,6.17
2022-11-14T23:23:32.975Z,6.15
2022-11-14T23:26:26.609Z,6.03
2022-11-14T23:29:14.185Z,6.02
2022-11-14T23:31:59.622Z,6.04
2022-11-14T23:34:44.763Z,5.92
2022-11-14T23:37:29.703Z,5.82
2022-11-14T23:40:15.175Z,5.78
2022-11-14T23:43:00.585Z,5.74
2022-11-14T23:45:48.220Z,5.71
2022-11-14T23:48:33.409Z,5.69
2022-11-14T23:51:18.390Z,5.65
2022-11-14T23:54:03.474Z,5.55
2022-11-14T23:56:48.445Z,5.48
2022-11-14T23:59:33.636Z,5.47
